Forside
METAR-TAF:

METAR-TAF

Lufthavne :

Ann Arbor, Michigan, USA

Breddekreds: 42-13-26N, længdekreds: 083-44-24W, højde: 255 m

Aktuelle vejr

Denne rapport blev lavet for 22 minutter siden, kl. 18:53 UTC
Vind 11 kt fra vestnordvest
Temperatur 6°C
Fugtighed 49%
Tryk 1023 hPa
Sigt: 16.1 km
skyfri

METAR: KARB 021853Z 30011KT 10SM CLR 06/M04 A3020 RMK AO2 SLPNO T00611039 $

Tid: 14:15 (19:15 UTC)


TAF: fraværende

Vejrobservationer og prognoser fra mere end 4000 lufthavne (METAR og TAF).

De gule og røde prikker repræsenterer de meteorologiske stationer.

Flyt musen over at se navnet på stationen.

Så klik over at se vejr observationer og prognoser.

At skifte det kort: Klik på de grønne knapper med et sort kors for at zoome ind; på den grønne knap med en bindestreg for at zoome ud; eller på de grønne pile for tilstødende kort.


METAR-TAF: